createdAt,value
2019-03-01T00:01:29.533Z,18.57
2019-03-01T00:04:02.226Z,19.87
2019-03-01T00:06:47.814Z,19.03
2019-03-01T00:10:05.193Z,17.50
2019-03-01T00:13:12.535Z,18.83
2019-03-01T00:15:54.921Z,19.33
2019-03-01T00:18:59.481Z,20.40
2019-03-01T00:21:54.245Z,19.13
2019-03-01T00:24:55.312Z,19.30
2019-03-01T00:27:51.078Z,19.50
2019-03-01T00:31:13.206Z,18.27
2019-03-01T00:34:04.406Z,18.20
2019-03-01T00:36:58.666Z,18.23
2019-03-01T00:40:01.826Z,17.20
2019-03-01T00:43:21.306Z,16.00
2019-03-01T00:48:30.846Z,15.90
2019-03-01T00:50:59.603Z,16.90
2019-03-01T00:53:28.374Z,14.33
2019-03-01T00:55:57.162Z,14.77
2019-03-01T00:58:25.969Z,13.30
2019-03-01T01:00:55.111Z,13.07
2019-03-01T01:03:23.874Z,12.90
2019-03-01T01:05:52.807Z,13.10
2019-03-01T01:08:21.588Z,11.07
2019-03-01T01:10:50.618Z,10.83
2019-03-01T01:13:19.389Z,11.30
2019-03-01T01:15:48.177Z,12.00
2019-03-01T01:18:16.958Z,10.27
2019-03-01T01:20:45.991Z,8.70
2019-03-01T01:23:14.908Z,10.67
2019-03-01T01:25:43.721Z,9.57
2019-03-01T01:28:12.555Z,9.30
2019-03-01T01:30:41.346Z,8.40
2019-03-01T01:33:10.114Z,8.73
2019-03-01T01:35:38.890Z,7.83
2019-03-01T01:38:07.659Z,7.83
2019-03-01T01:40:36.803Z,8.70
2019-03-01T01:43:05.769Z,8.27
2019-03-01T01:45:34.663Z,9.50
2019-03-01T01:48:03.445Z,9.77
2019-03-01T01:50:32.306Z,11.37
2019-03-01T01:53:01.081Z,11.73
2019-03-01T01:55:29.950Z,10.50
2019-03-01T01:57:58.762Z,10.17
2019-03-01T02:00:27.619Z,10.87
2019-03-01T02:02:56.378Z,9.93
2019-03-01T02:05:25.224Z,9.60
2019-03-01T02:07:54.007Z,9.90
2019-03-01T02:10:22.976Z,9.53
2019-03-01T02:12:51.816Z,9.83
2019-03-01T02:15:20.602Z,10.10
2019-03-01T02:17:49.366Z,10.20
2019-03-01T02:20:18.174Z,9.27
2019-03-01T02:22:46.938Z,10.20
2019-03-01T02:25:16.121Z,9.13
2019-03-01T02:27:44.887Z,9.33
2019-03-01T02:30:16.538Z,9.53
2019-03-01T02:32:52.300Z,9.17
2019-03-01T02:35:22.880Z,8.07
2019-03-01T02:37:51.745Z,8.87
2019-03-01T02:40:21.023Z,7.87
2019-03-01T02:42:49.913Z,9.03
2019-03-01T02:45:20.186Z,8.67
2019-03-01T02:47:49.087Z,8.60
2019-03-01T02:50:18.766Z,8.03
2019-03-01T02:52:47.654Z,9.47
2019-03-01T02:55:17.395Z,9.67
2019-03-01T02:57:46.326Z,9.60
2019-03-01T03:00:20.256Z,9.63
2019-03-01T03:02:49.102Z,9.17
2019-03-01T03:05:18.012Z,8.87
2019-03-01T03:07:51.570Z,10.20
2019-03-01T03:10:20.783Z,10.27
2019-03-01T03:12:50.501Z,9.67
2019-03-01T03:15:25.758Z,9.03
2019-03-01T03:17:54.626Z,9.60
2019-03-01T03:20:23.645Z,9.60
2019-03-01T03:22:52.713Z,9.23
2019-03-01T03:25:21.478Z,11.50
2019-03-01T03:27:50.268Z,10.03
2019-03-01T03:30:19.179Z,10.80
2019-03-01T03:32:48.242Z,11.00
2019-03-01T03:35:17.031Z,10.80
2019-03-01T03:37:46.083Z,10.40
2019-03-01T03:40:15.111Z,10.47
2019-03-01T03:42:44.085Z,10.40
2019-03-01T03:45:13.387Z,10.00
2019-03-01T03:47:42.233Z,9.80
2019-03-01T03:50:11.898Z,9.90
2019-03-01T03:52:40.799Z,10.40
2019-03-01T03:55:11.401Z,12.33
2019-03-01T03:57:40.511Z,11.07
2019-03-01T04:00:13.201Z,10.40
2019-03-01T04:02:42.613Z,10.57
2019-03-01T04:05:11.809Z,11.97
2019-03-01T04:07:40.743Z,11.00
2019-03-01T04:10:09.696Z,8.97
2019-03-01T04:12:38.637Z,9.17
2019-03-01T04:15:08.792Z,7.00
2019-03-01T04:17:37.578Z,7.60
2019-03-01T04:20:08.013Z,7.90
2019-03-01T04:22:36.879Z,8.10
2019-03-01T04:25:06.194Z,7.03
2019-03-01T04:27:35.018Z,7.37
2019-03-01T04:30:03.973Z,7.67
2019-03-01T04:32:32.742Z,7.47
2019-03-01T04:35:01.535Z,8.20
2019-03-01T04:37:30.442Z,8.63
2019-03-01T04:39:59.222Z,7.73
2019-03-01T04:42:28.122Z,6.80
2019-03-01T04:44:56.987Z,7.37
2019-03-01T04:47:25.815Z,8.07
2019-03-01T04:49:54.906Z,7.63
2019-03-01T04:52:37.079Z,8.33
2019-03-01T04:55:11.161Z,8.97
2019-03-01T04:57:40.002Z,8.63
2019-03-01T05:00:12.398Z,8.53
2019-03-01T05:02:41.322Z,9.63
2019-03-01T05:05:10.543Z,10.70
2019-03-01T05:07:39.441Z,10.40
2019-03-01T05:10:09.236Z,11.10
2019-03-01T05:12:38.031Z,12.13
2019-03-01T05:15:07.645Z,9.60
2019-03-01T05:17:36.542Z,11.03
2019-03-01T05:20:05.807Z,9.90
2019-03-01T05:22:34.631Z,10.97
2019-03-01T05:25:03.606Z,11.70
2019-03-01T05:27:32.583Z,10.70
2019-03-01T05:30:01.426Z,9.90
2019-03-01T05:32:30.286Z,9.80
2019-03-01T05:34:59.081Z,8.83
2019-03-01T05:37:27.852Z,8.20
2019-03-01T05:39:56.638Z,8.00
2019-03-01T05:42:25.409Z,7.93
2019-03-01T05:44:54.190Z,21.57
2019-03-01T05:47:23.091Z,10.13
2019-03-01T05:49:51.893Z,10.40
2019-03-01T05:52:20.661Z,9.90
2019-03-01T05:54:49.764Z,10.40
2019-03-01T05:57:18.522Z,7.47
2019-03-01T05:59:47.345Z,8.53
2019-03-01T06:03:07.022Z,6.60
2019-03-01T06:05:38.539Z,6.60
2019-03-01T06:08:41.926Z,6.90
2019-03-01T06:11:49.195Z,7.00
2019-03-01T06:14:46.335Z,7.93
2019-03-01T06:17:38.104Z,8.03
2019-03-01T06:20:53.554Z,7.10
2019-03-01T06:23:27.643Z,6.90
2019-03-01T06:26:46.356Z,7.43
2019-03-01T06:29:49.098Z,6.00
2019-03-01T06:32:45.126Z,6.70
2019-03-01T06:35:27.133Z,7.00
2019-03-01T06:38:48.754Z,7.27
2019-03-01T06:41:51.843Z,7.23
2019-03-01T06:45:09.982Z,7.80
2019-03-01T06:47:44.620Z,7.40
2019-03-01T06:50:31.316Z,7.70
2019-03-01T06:53:00.097Z,8.40
2019-03-01T06:55:45.825Z,8.10
2019-03-01T06:58:20.753Z,6.80
2019-03-01T07:00:53.094Z,6.90
2019-03-01T07:03:22.490Z,5.97
2019-03-01T07:05:51.247Z,6.17
2019-03-01T07:08:20.145Z,5.77
2019-03-01T07:10:49.241Z,5.77
2019-03-01T07:13:18.860Z,5.27
2019-03-01T07:15:47.651Z,4.80
2019-03-01T07:18:16.426Z,5.33
2019-03-01T07:20:45.264Z,5.53
2019-03-01T07:23:14.049Z,4.20
2019-03-01T07:25:42.851Z,4.63
2019-03-01T07:28:11.619Z,4.10
2019-03-01T07:30:40.384Z,4.70
2019-03-01T07:33:09.185Z,4.50
2019-03-01T07:35:42.474Z,3.90
2019-03-01T07:38:11.257Z,4.63
2019-03-01T07:40:40.107Z,4.67
2019-03-01T07:43:08.884Z,5.40
2019-03-01T07:45:37.644Z,5.60
2019-03-01T07:48:06.833Z,5.77
2019-03-01T07:50:35.699Z,4.47
2019-03-01T07:53:04.819Z,4.60
2019-03-01T07:55:33.790Z,4.33
2019-03-01T07:58:02.559Z,4.87
2019-03-01T08:00:31.370Z,5.13
2019-03-01T08:03:00.225Z,4.03
2019-03-01T08:05:29.065Z,4.83
2019-03-01T08:08:02.571Z,3.17
2019-03-01T08:10:28.598Z,2.93
2019-03-01T08:12:57.354Z,2.90
2019-03-01T08:15:26.202Z,3.27
2019-03-01T08:17:54.966Z,2.90
2019-03-01T08:20:23.742Z,2.50
2019-03-01T08:22:52.506Z,2.77
2019-03-01T08:25:23.413Z,3.50
2019-03-01T08:27:51.758Z,4.37
2019-03-01T08:30:20.703Z,4.73
2019-03-01T08:32:49.543Z,5.13
2019-03-01T08:35:18.502Z,6.10
2019-03-01T08:37:49.818Z,6.10
2019-03-01T08:40:18.172Z,6.77
2019-03-01T08:42:46.910Z,6.73
2019-03-01T08:45:16.823Z,7.63
2019-03-01T08:47:45.735Z,8.13
2019-03-01T08:50:15.633Z,8.50
2019-03-01T08:52:44.535Z,8.37
2019-03-01T08:55:15.357Z,7.97
2019-03-01T08:57:44.740Z,8.23
2019-03-01T09:00:32.937Z,10.20
2019-03-01T09:03:17.237Z,9.07
2019-03-01T09:05:45.957Z,8.73
2019-03-01T09:08:14.714Z,10.00
2019-03-01T09:10:43.831Z,9.40
2019-03-01T09:13:12.601Z,11.17
2019-03-01T09:15:41.371Z,12.00
2019-03-01T09:18:11.616Z,12.27
2019-03-01T09:20:40.876Z,13.20
2019-03-01T09:23:21.155Z,14.10
2019-03-01T09:25:41.436Z,14.77
2019-03-01T09:28:11.193Z,14.83
2019-03-01T09:30:43.534Z,16.50
2019-03-01T09:33:11.310Z,15.43
2019-03-01T09:35:53.618Z,17.23
2019-03-01T09:38:22.479Z,15.67
2019-03-01T09:40:51.324Z,16.77
2019-03-01T09:43:20.106Z,15.90
2019-03-01T09:45:49.552Z,15.80
2019-03-01T09:48:18.688Z,17.37
2019-03-01T09:50:47.483Z,17.40
2019-03-01T09:53:16.341Z,16.47
2019-03-01T09:55:45.271Z,17.77
2019-03-01T09:58:14.105Z,16.20
2019-03-01T10:00:55.643Z,16.07
2019-03-01T10:03:16.087Z,15.73
2019-03-01T10:05:44.918Z,14.80
2019-03-01T10:08:13.695Z,16.30
2019-03-01T10:10:42.483Z,16.37
2019-03-01T10:13:11.289Z,15.40
2019-03-01T10:15:40.213Z,14.67
2019-03-01T10:18:09.016Z,15.07
2019-03-01T10:20:37.846Z,14.93
2019-03-01T10:23:06.688Z,14.13
2019-03-01T10:25:35.494Z,14.83
2019-03-01T10:28:04.333Z,14.33
2019-03-01T10:30:33.197Z,15.17
2019-03-01T10:33:02.073Z,13.57
2019-03-01T10:35:30.962Z,13.53
2019-03-01T10:37:59.739Z,12.83
2019-03-01T10:40:28.610Z,14.50
2019-03-01T10:42:57.369Z,17.77
2019-03-01T10:45:26.324Z,17.73
2019-03-01T10:47:55.098Z,18.97
2019-03-01T10:50:24.322Z,18.73
2019-03-01T10:52:53.246Z,20.80
2019-03-01T10:55:22.489Z,21.37
2019-03-01T10:57:51.367Z,24.50
2019-03-01T11:00:21.938Z,24.57
2019-03-01T11:02:51.045Z,25.53
2019-03-01T11:05:20.158Z,24.73
2019-03-01T11:07:50.030Z,31.70
2019-03-01T11:10:30.226Z,34.30
2019-03-01T11:12:59.033Z,40.27
2019-03-01T11:15:27.980Z,48.03
2019-03-01T11:17:56.773Z,54.03
2019-03-01T11:20:25.829Z,60.97
2019-03-01T11:22:54.907Z,64.70
2019-03-01T11:25:23.701Z,67.30
2019-03-01T11:27:53.522Z,72.53
2019-03-01T11:30:24.578Z,72.33
2019-03-01T11:32:53.431Z,68.23
2019-03-01T11:35:22.220Z,67.47
2019-03-01T11:37:51.322Z,71.20
2019-03-01T11:40:22.403Z,67.23
2019-03-01T11:42:51.253Z,67.30
2019-03-01T11:45:20.043Z,63.67
2019-03-01T11:47:48.840Z,60.83
2019-03-01T11:50:19.385Z,68.00
2019-03-01T11:52:48.261Z,59.67
2019-03-01T11:55:17.220Z,62.07
2019-03-01T11:57:46.146Z,58.97
2019-03-01T12:00:18.638Z,59.97
2019-03-01T12:02:48.747Z,58.40
2019-03-01T12:05:17.725Z,58.40
2019-03-01T12:07:46.657Z,60.27
2019-03-01T12:10:20.492Z,59.50
2019-03-01T12:12:49.421Z,62.60
2019-03-01T12:15:18.343Z,60.70
2019-03-01T12:17:47.461Z,57.87
2019-03-01T12:20:17.737Z,53.13
2019-03-01T12:22:46.580Z,54.43
2019-03-01T12:25:15.423Z,54.30
2019-03-01T12:27:44.589Z,49.23
2019-03-01T12:30:15.754Z,48.17
2019-03-01T12:32:45.025Z,44.70
2019-03-01T12:35:13.987Z,47.83
2019-03-01T12:37:42.912Z,46.63
2019-03-01T12:40:14.794Z,43.83
2019-03-01T12:42:45.575Z,44.97
2019-03-01T12:45:14.904Z,46.07
2019-03-01T12:47:43.793Z,39.20
2019-03-01T12:50:12.875Z,38.10
2019-03-01T12:52:41.753Z,31.60
2019-03-01T12:55:12.762Z,32.23
2019-03-01T12:57:41.570Z,30.60
2019-03-01T13:00:15.754Z,28.53
2019-03-01T13:02:44.926Z,29.53
2019-03-01T13:05:13.798Z,30.83
2019-03-01T13:07:42.828Z,30.27
2019-03-01T13:10:20.426Z,31.23
2019-03-01T13:12:50.027Z,30.77
2019-03-01T13:15:18.972Z,27.30
2019-03-01T13:17:49.896Z,27.20
2019-03-01T13:20:18.462Z,26.20
2019-03-01T13:22:47.309Z,25.43
2019-03-01T13:25:16.283Z,28.93
2019-03-01T13:27:45.087Z,100.70
2019-03-01T13:30:16.057Z,32.70
2019-03-01T13:32:44.946Z,81.77
2019-03-01T13:35:14.103Z,29.67
2019-03-01T13:37:42.963Z,28.57
2019-03-01T13:40:13.497Z,29.03
2019-03-01T13:42:42.383Z,36.10
2019-03-01T13:45:15.018Z,28.70
2019-03-01T13:47:44.886Z,28.37
2019-03-01T13:50:14.665Z,28.77
2019-03-01T13:52:43.504Z,28.07
2019-03-01T13:55:12.430Z,32.87
2019-03-01T13:57:41.398Z,29.77
2019-03-01T14:00:12.685Z,26.37
2019-03-01T14:02:43.048Z,25.73
2019-03-01T14:05:13.301Z,24.83
2019-03-01T14:07:42.682Z,24.70
2019-03-01T14:10:12.991Z,23.53
2019-03-01T14:12:41.951Z,23.53
2019-03-01T14:15:12.934Z,22.23
2019-03-01T14:17:41.727Z,21.00
2019-03-01T14:20:19.059Z,22.87
2019-03-01T14:22:47.838Z,20.63
2019-03-01T14:25:17.226Z,19.43
2019-03-01T14:27:46.396Z,20.23
2019-03-01T14:30:17.066Z,18.50
2019-03-01T14:32:45.898Z,18.77
2019-03-01T14:35:14.959Z,18.57
2019-03-01T14:37:43.742Z,17.83
2019-03-01T14:40:13.461Z,18.87
2019-03-01T14:42:46.506Z,19.37
2019-03-01T14:45:15.643Z,19.83
2019-03-01T14:47:44.424Z,20.27
2019-03-01T14:50:14.634Z,21.57
2019-03-01T14:52:43.578Z,20.03
2019-03-01T14:55:14.998Z,21.03
2019-03-01T14:57:47.404Z,20.57
2019-03-01T15:00:55.353Z,21.03
2019-03-01T15:03:37.782Z,21.40
2019-03-01T15:06:08.166Z,21.90
2019-03-01T15:08:40.479Z,22.33
2019-03-01T15:11:22.251Z,23.03
2019-03-01T15:13:52.576Z,22.83
2019-03-01T15:16:21.552Z,25.63
2019-03-01T15:18:50.461Z,40.17
2019-03-01T15:21:19.356Z,25.27
2019-03-01T15:23:48.124Z,24.07
2019-03-01T15:26:16.931Z,26.20
2019-03-01T15:28:53.677Z,24.50
2019-03-01T15:31:18.384Z,25.03
2019-03-01T15:33:48.402Z,22.87
2019-03-01T15:36:17.785Z,24.43
2019-03-01T15:38:47.929Z,23.03
2019-03-01T15:41:16.809Z,22.27
2019-03-01T15:43:45.854Z,23.73
2019-03-01T15:46:15.423Z,22.83
2019-03-01T15:48:44.577Z,23.40
2019-03-01T15:51:13.397Z,23.23
2019-03-01T15:53:42.612Z,22.30
2019-03-01T15:56:11.555Z,22.60
2019-03-01T15:58:40.333Z,20.87
2019-03-01T16:01:11.923Z,21.47
2019-03-01T16:03:41.180Z,21.80
2019-03-01T16:06:10.604Z,19.37
2019-03-01T16:08:44.016Z,21.00
2019-03-01T16:11:12.664Z,18.80
2019-03-01T16:13:47.779Z,18.90
2019-03-01T16:16:13.690Z,20.77
2019-03-01T16:18:43.370Z,25.33
2019-03-01T16:21:12.296Z,35.43
2019-03-01T16:23:41.160Z,21.27
2019-03-01T16:26:10.050Z,18.23
2019-03-01T16:28:38.890Z,19.50
2019-03-01T16:31:07.693Z,19.43
2019-03-01T16:33:36.528Z,18.97
2019-03-01T16:36:10.274Z,17.60
2019-03-01T16:38:41.154Z,18.13
2019-03-01T16:41:09.873Z,17.47
2019-03-01T16:43:39.015Z,17.60
2019-03-01T16:46:07.787Z,18.60
2019-03-01T16:48:36.589Z,20.40
2019-03-01T16:51:05.365Z,16.30
2019-03-01T16:53:36.684Z,16.63
2019-03-01T16:56:04.867Z,16.00
2019-03-01T16:58:34.103Z,14.47
2019-03-01T17:01:02.877Z,15.20
2019-03-01T17:03:31.997Z,15.07
2019-03-01T17:06:00.794Z,15.37
2019-03-01T17:08:29.835Z,16.10
2019-03-01T17:10:58.690Z,15.53
2019-03-01T17:13:28.130Z,17.57
2019-03-01T17:15:57.066Z,18.10
2019-03-01T17:18:26.146Z,19.17
2019-03-01T17:20:54.929Z,18.57
2019-03-01T17:23:23.713Z,18.03
2019-03-01T17:25:52.490Z,18.87
2019-03-01T17:28:23.667Z,19.40
2019-03-01T17:30:51.992Z,18.40
2019-03-01T17:33:20.897Z,20.70
2019-03-01T17:35:49.690Z,19.07
2019-03-01T17:38:18.494Z,19.17
2019-03-01T17:40:47.351Z,19.93
2019-03-01T17:43:16.145Z,18.27
2019-03-01T17:45:44.989Z,20.60
2019-03-01T17:48:13.834Z,18.83
2019-03-01T17:50:44.688Z,19.73
2019-03-01T17:53:13.435Z,20.40
2019-03-01T17:55:42.310Z,21.77
2019-03-01T17:58:11.318Z,23.67
2019-03-01T18:00:40.925Z,24.63
2019-03-01T18:03:09.974Z,29.47
2019-03-01T18:05:40.641Z,32.73
2019-03-01T18:08:09.642Z,33.43
2019-03-01T18:10:38.425Z,35.83
2019-03-01T18:13:07.308Z,39.47
2019-03-01T18:15:36.101Z,27.77
2019-03-01T18:18:04.898Z,30.63
2019-03-01T18:20:37.196Z,27.27
2019-03-01T18:23:04.267Z,27.73
2019-03-01T18:25:33.425Z,23.50
2019-03-01T18:28:03.765Z,22.70
2019-03-01T18:30:32.630Z,22.60
2019-03-01T18:33:01.538Z,23.13
2019-03-01T18:35:30.363Z,23.20
2019-03-01T18:37:59.418Z,24.10
2019-03-01T18:40:28.365Z,22.83
2019-03-01T18:42:57.578Z,23.10
2019-03-01T18:45:26.510Z,24.37
2019-03-01T18:47:55.879Z,24.37
2019-03-01T18:50:27.661Z,23.93
2019-03-01T18:52:57.385Z,25.67
2019-03-01T18:55:26.275Z,25.83
2019-03-01T18:57:55.133Z,29.17
2019-03-01T19:00:26.553Z,30.13
2019-03-01T19:02:57.437Z,28.03
2019-03-01T19:05:25.997Z,28.47
2019-03-01T19:07:54.774Z,31.57
2019-03-01T19:10:24.008Z,28.97
2019-03-01T19:12:54.218Z,28.23
2019-03-01T19:15:23.073Z,27.70
2019-03-01T19:17:51.921Z,29.47
2019-03-01T19:20:22.628Z,29.90
2019-03-01T19:22:51.473Z,29.27
2019-03-01T19:25:21.623Z,28.63
2019-03-01T19:27:51.815Z,26.83
2019-03-01T19:30:21.922Z,28.73
2019-03-01T19:32:50.854Z,29.57
2019-03-01T19:35:19.705Z,30.00
2019-03-01T19:37:49.661Z,29.60
2019-03-01T19:40:19.220Z,29.50
2019-03-01T19:42:48.092Z,29.93
2019-03-01T19:45:17.641Z,30.77
2019-03-01T19:47:46.822Z,29.90
2019-03-01T19:50:17.410Z,31.30
2019-03-01T19:52:47.050Z,29.10
2019-03-01T19:55:16.983Z,29.93
2019-03-01T19:57:45.854Z,29.40
2019-03-01T20:00:17.106Z,29.53
2019-03-01T20:02:46.066Z,28.27
2019-03-01T20:05:16.649Z,27.33
2019-03-01T20:07:45.512Z,31.80
2019-03-01T20:10:16.048Z,32.13
2019-03-01T20:12:44.971Z,27.50
2019-03-01T20:15:20.434Z,30.43
2019-03-01T20:17:49.037Z,26.63
2019-03-01T20:20:18.792Z,27.90
2019-03-01T20:22:50.498Z,28.70
2019-03-01T20:25:18.238Z,28.60
2019-03-01T20:27:47.101Z,25.93
2019-03-01T20:30:18.018Z,28.53
2019-03-01T20:32:47.385Z,26.83
2019-03-01T20:35:17.594Z,26.63
2019-03-01T20:37:46.538Z,25.93
2019-03-01T20:40:15.497Z,26.90
2019-03-01T20:42:44.364Z,35.07
2019-03-01T20:45:15.911Z,29.07
2019-03-01T20:47:44.856Z,28.43
2019-03-01T20:50:15.709Z,28.07
2019-03-01T20:52:44.447Z,26.93
2019-03-01T20:55:13.681Z,25.70
2019-03-01T20:57:42.454Z,26.93
2019-03-01T21:00:13.244Z,23.47
2019-03-01T21:02:42.086Z,26.17
2019-03-01T21:05:11.341Z,47.43
2019-03-01T21:07:40.203Z,28.00
2019-03-01T21:10:15.714Z,26.17
2019-03-01T21:12:43.045Z,26.37
2019-03-01T21:15:12.053Z,27.13
2019-03-01T21:17:41.010Z,25.90
2019-03-01T21:20:10.964Z,26.97
2019-03-01T21:22:40.779Z,27.57
2019-03-01T21:25:11.662Z,26.10
2019-03-01T21:27:40.521Z,29.53
2019-03-01T21:30:13.017Z,25.17
2019-03-01T21:32:41.941Z,28.63
2019-03-01T21:35:13.590Z,27.40
2019-03-01T21:37:41.343Z,27.33
2019-03-01T21:40:10.395Z,26.80
2019-03-01T21:42:39.299Z,25.43
2019-03-01T21:45:09.561Z,27.80
2019-03-01T21:47:38.323Z,24.20
2019-03-01T21:50:07.805Z,24.33
2019-03-01T21:52:36.745Z,25.50
2019-03-01T21:55:06.310Z,25.67
2019-03-01T21:57:35.144Z,27.73
2019-03-01T22:00:04.495Z,27.53
2019-03-01T22:02:33.257Z,27.60
2019-03-01T22:05:02.050Z,29.20
2019-03-01T22:07:33.688Z,28.40
2019-03-01T22:10:01.695Z,28.57
2019-03-01T22:12:30.521Z,28.20
2019-03-01T22:14:59.561Z,25.33
2019-03-01T22:17:28.326Z,25.93
2019-03-01T22:19:57.110Z,28.57
2019-03-01T22:22:26.214Z,26.57
2019-03-01T22:24:55.017Z,26.07
2019-03-01T22:27:25.291Z,27.33
2019-03-01T22:29:54.282Z,27.73
2019-03-01T22:32:23.050Z,27.27
2019-03-01T22:34:51.828Z,29.30
2019-03-01T22:37:20.885Z,29.97
2019-03-01T22:39:51.451Z,28.47
2019-03-01T22:42:20.146Z,28.80
2019-03-01T22:44:48.922Z,28.53
2019-03-01T22:47:17.690Z,29.23
2019-03-01T22:49:46.800Z,28.47
2019-03-01T22:52:15.866Z,30.00
2019-03-01T22:54:44.969Z,31.80
2019-03-01T22:57:13.745Z,32.53
2019-03-01T22:59:43.621Z,32.27
2019-03-01T23:02:15.890Z,31.23
2019-03-01T23:04:44.738Z,34.07
2019-03-01T23:07:13.505Z,34.93
2019-03-01T23:09:42.676Z,35.53
2019-03-01T23:12:14.756Z,34.60
2019-03-01T23:14:43.407Z,33.20
2019-03-01T23:17:12.191Z,33.73
2019-03-01T23:19:40.949Z,35.57
2019-03-01T23:22:11.030Z,34.27
2019-03-01T23:24:40.310Z,33.87
2019-03-01T23:27:09.155Z,35.87
2019-03-01T23:29:37.921Z,33.37
2019-03-01T23:32:06.770Z,36.13
2019-03-01T23:34:38.819Z,34.60
2019-03-01T23:37:06.033Z,33.57
2019-03-01T23:39:34.895Z,35.50
2019-03-01T23:42:03.732Z,34.90
2019-03-01T23:44:32.511Z,34.70
2019-03-01T23:47:02.818Z,34.43
2019-03-01T23:49:31.809Z,33.70
2019-03-01T23:52:00.586Z,36.33
2019-03-01T23:54:29.350Z,36.90
2019-03-01T23:56:58.117Z,35.93
2019-03-01T23:59:27.554Z,38.03
